WetterOnline ( http://www.wetteronline.de )

Wetter aktuell Hohenpeißenberg

Aktuelles Wetter: Hohenpeißenberg (986m)

6-stündlich | Neueste Meldungen
Ortszeit Temperatur Wetter
Do, 21.06. 8:00 19.0° C fast wolkenlos
Do, 21.06. 2:00 17.7° C wolkenlos
Mi, 20.06. 20:00 21.6° C leicht bewölkt
Mi, 20.06. 14:00 22.6° C fast wolkenlos
Mi, 20.06. 8:00 17.4° C wolkenlos
Mi, 20.06. 2:00 16.7° C wolkenlos
Di, 19.06. 20:00 18.7° C leicht bewölkt
Di, 19.06. 14:00 19.1° C wolkig
Ortszeit Temperatur Wetter
Do, 21.06. 10:30 22.1° C leicht bewölkt
Do, 21.06. 10:20 22.1° C wolkenlos
Do, 21.06. 10:10 22.1° C fast wolkenlos
Do, 21.06. 10:00 22.2° C leicht bewölkt
Do, 21.06. 9:50 22.2° C wolkenlos
Do, 21.06. 9:40 21.4° C wolkenlos
Do, 21.06. 9:30 20.9° C leicht bewölkt
Do, 21.06. 9:00 20.2° C leicht bewölkt
Do, 21.06. 8:30 19.5° C leicht bewölkt
Do, 21.06. 8:00 19.0° C fast wolkenlos
Do, 21.06. 7:30 18.7° C fast wolkenlos
Ortszeit Relative Feuchte Sichtweite
Do, 21.06. 8:00 63% >70 km
Do, 21.06. 2:00 71% 60 km
Mi, 20.06. 20:00 58% 60 km
Mi, 20.06. 14:00 52% >70 km
Mi, 20.06. 8:00 68% >70 km
Mi, 20.06. 2:00 71% 70 km
Di, 19.06. 20:00 64% 65 km
Di, 19.06. 14:00 59% 50 km
Ortszeit Relative Feuchte Sichtweite
Do, 21.06. 10:30 60% >70 km
Do, 21.06. 10:20 60% -
Do, 21.06. 10:10 62% -
Do, 21.06. 10:00 66% >70 km
Do, 21.06. 9:50 66% -
Do, 21.06. 9:40 65% -
Do, 21.06. 9:30 65% >70 km
Do, 21.06. 9:00 64% >70 km
Do, 21.06. 8:30 63% >70 km
Do, 21.06. 8:00 63% >70 km
Do, 21.06. 7:30 63% >70 km
Ortszeit Niederschlagsmenge Niederschlagsart
Do, 21.06. 8:00 0.0 l/m2 in 12 Std. -
Do, 21.06. 2:00 0.0 l/m2 in 6 Std. -
Mi, 20.06. 20:00 0.0 l/m2 in 12 Std. -
Mi, 20.06. 14:00 0.0 l/m2 in 6 Std. -
Mi, 20.06. 8:00 0.0 l/m2 in 12 Std. -
Mi, 20.06. 2:00 0.0 l/m2 in 6 Std. -
Di, 19.06. 20:00 0.0 l/m2 in 12 Std. -
Di, 19.06. 14:00 0.0 l/m2 in 6 Std. -
Ortszeit Niederschlagsmenge Niederschlagsart
Do, 21.06. 10:30 0.0 l/m2 in 1 Std. -
Do, 21.06. 10:20 keine Meldung -
Do, 21.06. 10:10 keine Meldung -
Do, 21.06. 10:00 0.0 l/m2 in 1 Std. -
Do, 21.06. 9:50 keine Meldung -
Do, 21.06. 9:40 keine Meldung -
Do, 21.06. 9:30 0.0 l/m2 in 1 Std. -
Do, 21.06. 9:00 0.0 l/m2 in 1 Std. -
Do, 21.06. 8:30 0.0 l/m2 in 1 Std. -
Do, 21.06. 8:00 0.0 l/m2 in 1 Std. -
Do, 21.06. 7:30 0.0 l/m2 in 1 Std. -
Ortszeit Stärke Spitze Richtung
km/h Bft. km/h Grad Sektor
Do, 21.06. 8:00 20 4 30 240° SW
Do, 21.06. 2:00 7 2 22 150° SO
Mi, 20.06. 20:00 13 3 22 20° N
Mi, 20.06. 14:00 11 2 24 30° NO
Mi, 20.06. 8:00 7 2 22 90° O
Mi, 20.06. 2:00 14 3 25 110° O
Di, 19.06. 20:00 11 2 18 30° NO
Di, 19.06. 14:00 7 2 17 360° N
Ortszeit Stärke Spitze Richtung
km/h Bft. km/h Grad Sektor
Do, 21.06. 10:30 22 4 39 250° W
Do, 21.06. 10:20 22 4 - 250° W
Do, 21.06. 10:10 22 4 - 240° SW
Do, 21.06. 10:00 19 3 35 230° SW
Do, 21.06. 9:50 19 3 - 230° SW
Do, 21.06. 9:40 20 4 - 240° SW
Do, 21.06. 9:30 18 3 29 240° SW
Do, 21.06. 9:00 19 3 30 240° SW
Do, 21.06. 8:30 20 4 30 240° SW
Do, 21.06. 8:00 20 4 30 240° SW
Do, 21.06. 7:30 18 3 25 250° W
Ortszeit Untergrenze Bedeckung Gattung
total tief tief mittel hoch
Do, 21.06. 8:00 1500 m 1/8 1/8 Sc - -
Do, 21.06. 2:00 - 0/8 0/8 - - -
Mi, 20.06. 20:00 - 2/8 2/8 Cb - -
Mi, 20.06. 14:00 1800 m 1/8 1/8 Cu - -
Mi, 20.06. 8:00 - 0/8 0/8 - - -
Mi, 20.06. 2:00 - 0/8 0/8 - - -
Di, 19.06. 20:00 1500 m 2/8 2/8 Cu - -
Di, 19.06. 14:00 960 m 5/8 5/8 Cu - -
Ortszeit Bedeckungsgrad in Achtel und Wolkenuntergrenze
Do, 21.06. 10:30 2(900m)
Do, 21.06. 10:20 keine Wolken
Do, 21.06. 10:10 1(1800m)
Do, 21.06. 10:00 2(780m)
Do, 21.06. 9:50 keine Wolken
Do, 21.06. 9:40 keine Wolken
Do, 21.06. 9:30 2(1500m)
Do, 21.06. 9:00 2(1500m)
Do, 21.06. 8:30 2(1500m)
Do, 21.06. 8:00 1(1500m)
Do, 21.06. 7:30 1(1500m)
Ortszeit Stationsdruck (hPa) Tendenz (hPa in 3 Std.)
Do, 21.06. 8:00 907 0,0
Do, 21.06. 2:00 908 - 1,0
Mi, 20.06. 20:00 909 - 0,7
Mi, 20.06. 14:00 910 - 0,5
Mi, 20.06. 8:00 911 - 0,3
Mi, 20.06. 2:00 912 - 0,5
Di, 19.06. 20:00 912 - 0,3
Di, 19.06. 14:00 913 - 0,3
Ortszeit Stationsdruck (hPa) Tendenz (hPa in 3 Std.)
Do, 21.06. 10:30 906 - 0,5
Do, 21.06. 10:20 906 keine Meldung
Do, 21.06. 10:10 906 keine Meldung
Do, 21.06. 10:00 906 - 0,4
Do, 21.06. 9:50 906 keine Meldung
Do, 21.06. 9:40 906 keine Meldung
Do, 21.06. 9:30 906 - 0,3
Do, 21.06. 9:00 907 - 0,1
Do, 21.06. 8:30 907 0,0
Do, 21.06. 8:00 907 0,0
Do, 21.06. 7:30 907 - 0,3
Ortszeit Schneehöhe (cm)
Do, 21.06. 8:00 0
Do, 21.06. 2:00 0
Mi, 20.06. 20:00 0
Mi, 20.06. 14:00 0
Mi, 20.06. 8:00 0
Mi, 20.06. 2:00 0
Di, 19.06. 20:00 0
Di, 19.06. 14:00 0
Ortszeit Schneehöhe (cm)
Do, 21.06. 10:30 -
Do, 21.06. 10:20 -
Do, 21.06. 10:10 -
Do, 21.06. 10:00 -
Do, 21.06. 9:50 -
Do, 21.06. 9:40 -
Do, 21.06. 9:30 -
Do, 21.06. 9:00 -
Do, 21.06. 8:30 -
Do, 21.06. 8:00 0
Do, 21.06. 7:30 -
Link zu dieser Seite / Seite empfehlen

Das Wetter in ...